Time;durP1;ratioP1;P1;durP2;ratioP2;P2;SDS_P1;SDS_P2;PMS_P1;PMS_P2;Temp;Humidity;BMP_temperature;BMP_pressure;BME280_temperature;BME280_humidity;BME280_pressure;Samples;Min_cycle;Max_cycle;Signal;HPM_P1;HPM_P2
2021/06/02 00:01:58;;;;;;;;;;;29.50;89.30;;;;;;1866482;75;20192;-94
2021/06/02 00:04:29;;;;;;;;;;;29.50;88.30;;;;;;1834886;77;20433;-94
2021/06/02 00:07:00;;;;;;;;;;;29.50;87.60;;;;;;1863691;75;20514;-94
2021/06/02 00:09:29;;;;;;;;;;;29.60;87.30;;;;;;1866364;75;20176;-87
2021/06/02 00:12:00;;;;;;;;;;;29.60;87.00;;;;;;1858047;77;20117;-89
2021/06/02 00:14:31;;;;;;;;;;;29.70;87.00;;;;;;1864560;75;20183;-90
2021/06/02 00:17:01;;;;;;;;;;;29.70;86.00;;;;;;1867396;77;20125;-89
2021/06/02 00:19:31;;;;;;;;;;;29.80;85.80;;;;;;1862525;75;20137;-88
2021/06/02 00:22:10;;;;;;;;;;;29.80;85.50;;;;;;1896735;73;20518;-89
2021/06/02 00:24:50;;;;;;;;;;;29.90;85.50;;;;;;1921893;73;20274;-89
2021/06/02 00:27:21;;;;;;;;;;;29.90;85.70;;;;;;1907785;73;20204;-90
2021/06/02 00:29:59;;;;;;;;;;;29.90;85.80;;;;;;1921577;75;20255;-89
2021/06/02 00:32:29;;;;;;;;;;;29.90;85.30;;;;;;1910983;75;20182;-89
2021/06/02 00:35:00;;;;;;;;;;;30.00;84.90;;;;;;1892694;74;20206;-90
2021/06/02 00:37:30;;;;;;;;;;;30.00;85.40;;;;;;1913776;74;20173;-89
2021/06/02 00:40:01;;;;;;;;;;;30.10;84.80;;;;;;1894507;75;20478;-90
2021/06/02 00:42:32;;;;;;;;;;;30.10;84.60;;;;;;1935982;73;20428;-89
2021/06/02 00:45:02;;;;;;;;;;;30.20;84.60;;;;;;1937936;73;20188;-89
2021/06/02 00:47:32;;;;;;;;;;;30.30;84.70;;;;;;1938884;74;20156;-90
2021/06/02 00:50:03;;;;;;;;;;;30.40;84.30;;;;;;1937747;73;20180;-89
2021/06/02 00:52:34;;;;;;;;;;;30.40;83.50;;;;;;1938746;73;20117;-89
2021/06/02 00:55:05;;;;;;;;;;;30.50;83.70;;;;;;1932528;73;20207;-90
2021/06/02 00:57:35;;;;;;;;;;;30.60;82.50;;;;;;1935688;73;20577;-81
2021/06/02 01:00:06;;;;;;;;;;;30.70;82.50;;;;;;1918629;73;20302;-81
2021/06/02 01:02:37;;;;;;;;;;;30.70;82.70;;;;;;1933874;73;20413;-82
2021/06/02 01:05:07;;;;;;;;;;;30.70;83.10;;;;;;1936420;73;20199;-81
2021/06/02 01:07:37;;;;;;;;;;;30.80;83.00;;;;;;1937493;74;20211;-82
2021/06/02 01:10:08;;;;;;;;;;;30.80;82.50;;;;;;1937501;73;20514;-81
2021/06/02 01:12:41;;;;;;;;;;;30.90;82.10;;;;;;1933695;73;20132;-82
2021/06/02 01:15:11;;;;;;;;;;;30.90;81.70;;;;;;1937333;73;20202;-81
2021/06/02 01:17:42;;;;;;;;;;;31.00;81.70;;;;;;1937420;74;20407;-81
2021/06/02 01:20:13;;;;;;;;;;;31.10;82.30;;;;;;1933150;73;20175;-81
2021/06/02 01:22:42;;;;;;;;;;;31.20;82.10;;;;;;1932311;73;20231;-83
2021/06/02 01:25:13;;;;;;;;;;;31.30;81.10;;;;;;1934308;73;20250;-82
2021/06/02 01:27:44;;;;;;;;;;;31.30;80.80;;;;;;1933492;73;20586;-81
2021/06/02 01:30:15;;;;;;;;;;;31.40;80.00;;;;;;1934570;73;20226;-81
2021/06/02 01:32:46;;;;;;;;;;;31.50;80.60;;;;;;1934167;73;20782;-81
2021/06/02 01:35:18;;;;;;;;;;;31.50;80.20;;;;;;1929863;73;20246;-80
2021/06/02 01:37:49;;;;;;;;;;;31.60;78.90;;;;;;1936086;73;20188;-81
2021/06/02 01:40:20;;;;;;;;;;;31.70;78.90;;;;;;1943458;72;20137;-81
2021/06/02 01:42:51;;;;;;;;;;;31.80;78.20;;;;;;1931076;73;20203;-80
2021/06/02 01:45:23;;;;;;;;;;;31.90;77.80;;;;;;1931382;73;20617;-80
2021/06/02 01:47:54;;;;;;;;;;;31.90;77.80;;;;;;1933358;73;20235;-81
2021/06/02 01:50:25;;;;;;;;;;;32.00;77.40;;;;;;1936757;73;20221;-81
2021/06/02 01:52:59;;;;;;;;;;;32.10;77.00;;;;;;1981565;70;20225;-82
2021/06/02 01:55:30;;;;;;;;;;;32.20;76.70;;;;;;1989024;71;20240;-80
2021/06/02 01:58:01;;;;;;;;;;;32.30;77.00;;;;;;1973986;71;20214;-84
2021/06/02 02:00:32;;;;;;;;;;;32.40;76.80;;;;;;1974869;71;20256;-83
2021/06/02 02:03:07;;;;;;;;;;;32.50;75.80;;;;;;1992496;71;20215;-83
2021/06/02 02:05:38;;;;;;;;;;;32.70;74.60;;;;;;1964392;71;20161;-83
2021/06/02 02:08:09;;;;;;;;;;;32.70;75.50;;;;;;1967246;71;20249;-82
2021/06/02 02:10:39;;;;;;;;;;;32.80;74.60;;;;;;1947766;71;20228;-82
2021/06/02 02:13:10;;;;;;;;;;;33.00;73.90;;;;;;1962852;71;20206;-84
2021/06/02 02:15:41;;;;;;;;;;;33.00;73.50;;;;;;1961688;73;20214;-85
2021/06/02 02:18:12;;;;;;;;;;;33.10;73.20;;;;;;1953500;71;20186;-87
2021/06/02 02:20:43;;;;;;;;;;;33.20;72.70;;;;;;1955569;71;20195;-85
2021/06/02 02:23:14;;;;;;;;;;;33.20;73.20;;;;;;1899509;73;20307;-85
2021/06/02 02:25:46;;;;;;;;;;;33.30;72.00;;;;;;1848684;76;20487;-83
2021/06/02 02:28:17;;;;;;;;;;;33.40;71.60;;;;;;1880773;75;20185;-90
2021/06/02 02:30:48;;;;;;;;;;;33.40;70.70;;;;;;1877241;75;20187;-85
2021/06/02 02:33:19;;;;;;;;;;;33.50;71.20;;;;;;1877519;75;20529;-82
2021/06/02 02:35:50;;;;;;;;;;;33.50;70.80;;;;;;1881063;75;20816;-79
2021/06/02 02:38:21;;;;;;;;;;;33.60;70.70;;;;;;1859099;76;20450;-80
2021/06/02 02:40:52;;;;;;;;;;;33.50;70.50;;;;;;1924710;73;20179;-77
2021/06/02 02:43:22;;;;;;;;;;;33.60;70.90;;;;;;1917119;73;20158;-84
2021/06/02 02:45:53;;;;;;;;;;;33.70;71.00;;;;;;1917167;73;20241;-82
2021/06/02 02:48:25;;;;;;;;;;;33.70;71.80;;;;;;1917088;73;20212;-81
2021/06/02 02:50:58;;;;;;;;;;;33.80;71.30;;;;;;1851958;76;20799;-83
2021/06/02 02:53:28;;;;;;;;;;;33.90;70.10;;;;;;1855337;76;20154;-82
2021/06/02 02:55:59;;;;;;;;;;;34.00;69.80;;;;;;1839365;76;20535;-81
2021/06/02 02:58:30;;;;;;;;;;;34.10;69.30;;;;;;1870698;75;20235;-82
2021/06/02 03:01:01;;;;;;;;;;;34.20;67.50;;;;;;1865565;75;20175;-82
2021/06/02 03:03:32;;;;;;;;;;;34.30;67.50;;;;;;1915794;73;20126;-82
2021/06/02 03:06:03;;;;;;;;;;;34.30;67.80;;;;;;1908976;73;20207;-81
2021/06/02 03:08:34;;;;;;;;;;;34.30;68.10;;;;;;1891724;73;20226;-80
2021/06/02 03:11:05;;;;;;;;;;;34.40;67.80;;;;;;1871548;74;20205;-81
2021/06/02 03:13:36;;;;;;;;;;;34.60;66.80;;;;;;1878004;76;20227;-80
2021/06/02 03:16:07;;;;;;;;;;;34.70;67.40;;;;;;1875974;75;20251;-78
2021/06/02 03:18:38;;;;;;;;;;;34.80;66.00;;;;;;1897404;74;20168;-79
2021/06/02 03:21:09;;;;;;;;;;;34.70;65.90;;;;;;1899953;74;20274;-79
2021/06/02 03:23:41;;;;;;;;;;;34.70;66.80;;;;;;1879716;74;20189;-79
2021/06/02 03:26:12;;;;;;;;;;;34.80;65.10;;;;;;1894250;73;20217;-78
2021/06/02 03:28:43;;;;;;;;;;;34.80;63.40;;;;;;1871576;75;20226;-79
2021/06/02 03:31:14;;;;;;;;;;;34.90;63.20;;;;;;1870233;75;20393;-78
2021/06/02 03:33:45;;;;;;;;;;;34.90;63.60;;;;;;1903519;74;20230;-78
2021/06/02 03:36:16;;;;;;;;;;;35.00;64.60;;;;;;1945319;72;20130;-77
2021/06/02 03:38:47;;;;;;;;;;;35.00;64.80;;;;;;1938439;73;20475;-78
2021/06/02 03:41:19;;;;;;;;;;;35.10;65.00;;;;;;1946796;72;20181;-78
2021/06/02 03:43:50;;;;;;;;;;;35.10;63.90;;;;;;1951199;72;20669;-78
2021/06/02 03:46:21;;;;;;;;;;;35.20;63.00;;;;;;1941738;72;20167;-77
2021/06/02 03:48:52;;;;;;;;;;;35.20;61.80;;;;;;1945801;72;20223;-79
2021/06/02 03:51:24;;;;;;;;;;;35.20;60.70;;;;;;1931932;72;20233;-77
2021/06/02 03:53:54;;;;;;;;;;;35.30;61.10;;;;;;1937140;72;20243;-78
2021/06/02 03:56:25;;;;;;;;;;;35.30;61.90;;;;;;1949881;72;20122;-77
2021/06/02 03:58:56;;;;;;;;;;;35.40;62.40;;;;;;1941400;72;20341;-79
2021/06/02 04:01:28;;;;;;;;;;;35.40;62.10;;;;;;1936113;72;20180;-78
2021/06/02 04:03:59;;;;;;;;;;;35.50;62.70;;;;;;1951182;72;20521;-79
2021/06/02 04:06:31;;;;;;;;;;;35.50;62.50;;;;;;1916147;73;20174;-81
2021/06/02 04:09:02;;;;;;;;;;;35.40;62.90;;;;;;1949805;72;20279;-81
2021/06/02 04:11:33;;;;;;;;;;;35.50;62.20;;;;;;1944286;72;20216;-80
2021/06/02 04:14:04;;;;;;;;;;;35.40;62.20;;;;;;1935382;72;20241;-79
2021/06/02 04:16:35;;;;;;;;;;;35.60;62.60;;;;;;1890303;74;20719;-78
2021/06/02 04:19:06;;;;;;;;;;;35.60;61.80;;;;;;1891514;73;20229;-83
2021/06/02 04:21:38;;;;;;;;;;;35.60;61.30;;;;;;1898485;73;20138;-80
2021/06/02 04:24:11;;;;;;;;;;;35.60;61.20;;;;;;1962550;71;20185;-78
2021/06/02 04:26:42;;;;;;;;;;;35.40;61.20;;;;;;1970562;72;20199;-82
2021/06/02 04:29:12;;;;;;;;;;;35.30;62.30;;;;;;1963224;72;20208;-80
2021/06/02 04:31:43;;;;;;;;;;;35.30;62.40;;;;;;1969495;72;20116;-82
2021/06/02 04:34:13;;;;;;;;;;;35.40;62.40;;;;;;1960467;72;20190;-81
2021/06/02 04:36:44;;;;;;;;;;;35.60;61.90;;;;;;1965810;72;20283;-81
2021/06/02 04:39:14;;;;;;;;;;;35.70;62.00;;;;;;1968945;72;20183;-81
2021/06/02 04:41:45;;;;;;;;;;;35.80;60.50;;;;;;1963340;72;20210;-81
2021/06/02 04:44:16;;;;;;;;;;;35.90;60.00;;;;;;1957196;70;20397;-81
2021/06/02 04:46:47;;;;;;;;;;;36.00;59.80;;;;;;1972961;72;20122;-82
2021/06/02 04:49:21;;;;;;;;;;;36.00;59.50;;;;;;1959644;72;20644;-81
2021/06/02 04:52:02;;;;;;;;;;;36.00;59.20;;;;;;1978241;72;20140;-79
2021/06/02 04:54:25;;;;;;;;;;;36.10;59.00;;;;;;1973271;72;20183;-78
2021/06/02 04:56:58;;;;;;;;;;;36.10;58.70;;;;;;1958133;72;20172;-78
2021/06/02 04:59:32;;;;;;;;;;;36.20;59.60;;;;;;1960739;72;20610;-78
2021/06/02 05:02:03;;;;;;;;;;;36.20;58.40;;;;;;1954367;72;20436;-78
2021/06/02 05:04:34;;;;;;;;;;;36.40;59.50;;;;;;1947305;72;20188;-79
2021/06/02 05:07:05;;;;;;;;;;;36.40;59.40;;;;;;1966717;72;20270;-77
2021/06/02 05:09:36;;;;;;;;;;;36.40;62.50;;;;;;1889529;75;20178;-78
2021/06/02 05:12:07;;;;;;;;;;;36.30;58.90;;;;;;1895288;74;20155;-78
2021/06/02 05:14:38;;;;;;;;;;;36.30;59.30;;;;;;1906009;74;20170;-79
2021/06/02 05:17:10;;;;;;;;;;;36.30;58.70;;;;;;1901524;74;20177;-77
2021/06/02 05:22:14;;;;;;;;;;;36.30;58.70;;;;;;1895477;74;20248;-78
2021/06/02 05:24:45;;;;;;;;;;;36.30;60.90;;;;;;1906005;73;20248;-81
2021/06/02 05:27:16;;;;;;;;;;;36.40;57.60;;;;;;1912810;73;20273;-79
2021/06/02 05:29:47;;;;;;;;;;;36.40;57.60;;;;;;1930179;73;20189;-82
2021/06/02 05:32:18;;;;;;;;;;;36.40;57.10;;;;;;1898189;75;20217;-83
2021/06/02 05:34:50;;;;;;;;;;;36.50;57.50;;;;;;1922860;73;20511;-81
2021/06/02 05:37:21;;;;;;;;;;;36.50;57.50;;;;;;1921903;73;20377;-80
2021/06/02 05:39:52;;;;;;;;;;;36.60;56.60;;;;;;1913751;73;20115;-78
2021/06/02 05:42:23;;;;;;;;;;;36.60;56.60;;;;;;1886279;75;20219;-79
2021/06/02 05:44:55;;;;;;;;;;;36.60;56.80;;;;;;1909147;74;20177;-84
2021/06/02 05:47:26;;;;;;;;;;;36.60;57.30;;;;;;1898904;74;20163;-77
2021/06/02 05:49:57;;;;;;;;;;;36.60;55.90;;;;;;1896868;74;20257;-79
2021/06/02 05:52:28;;;;;;;;;;;36.70;56.30;;;;;;1890102;74;20509;-78
2021/06/02 05:54:59;;;;;;;;;;;36.70;55.50;;;;;;1894335;74;20241;-81
2021/06/02 05:57:30;;;;;;;;;;;36.70;56.00;;;;;;1888386;74;20217;-81
2021/06/02 06:00:01;;;;;;;;;;;36.60;56.20;;;;;;1879780;75;20231;-82
2021/06/02 06:02:33;;;;;;;;;;;36.70;57.10;;;;;;1954747;72;20392;-80
2021/06/02 06:05:04;;;;;;;;;;;36.70;56.80;;;;;;1962141;72;20908;-82
2021/06/02 06:07:35;;;;;;;;;;;36.70;57.10;;;;;;1969477;72;20253;-79
2021/06/02 06:10:06;;;;;;;;;;;36.60;56.10;;;;;;1946621;72;20214;-79
2021/06/02 06:12:37;;;;;;;;;;;36.60;55.90;;;;;;1965975;72;20239;-77
2021/06/02 06:15:08;;;;;;;;;;;36.60;55.90;;;;;;1966321;72;20128;-76
2021/06/02 06:17:39;;;;;;;;;;;36.60;55.70;;;;;;1977382;72;20514;-76
2021/06/02 06:20:10;;;;;;;;;;;36.60;56.00;;;;;;1979942;72;20253;-76
2021/06/02 06:22:44;;;;;;;;;;;36.60;56.60;;;;;;1965849;72;20224;-77
2021/06/02 06:25:15;;;;;;;;;;;36.60;55.20;;;;;;1973770;71;20159;-76
2021/06/02 06:27:48;;;;;;;;;;;36.70;54.50;;;;;;1978648;71;20172;-75
2021/06/02 06:30:19;;;;;;;;;;;36.70;54.50;;;;;;1978312;72;20268;-76
2021/06/02 06:32:50;;;;;;;;;;;36.70;54.30;;;;;;1980208;72;20152;-79
2021/06/02 06:35:22;;;;;;;;;;;36.70;54.00;;;;;;1983108;71;20186;-76
2021/06/02 06:37:53;;;;;;;;;;;36.80;54.00;;;;;;1978753;72;20148;-75
2021/06/02 06:40:24;;;;;;;;;;;36.80;53.30;;;;;;1973630;71;20130;-77
2021/06/02 06:42:55;;;;;;;;;;;36.70;52.90;;;;;;1975221;71;20160;-76
2021/06/02 06:45:27;;;;;;;;;;;36.70;52.90;;;;;;1976396;71;20188;-82
2021/06/02 06:47:57;;;;;;;;;;;36.60;53.60;;;;;;1910880;74;20494;-79
2021/06/02 06:50:28;;;;;;;;;;;36.60;54.20;;;;;;1890233;75;20186;-82
2021/06/02 06:53:02;;;;;;;;;;;36.60;54.10;;;;;;1888069;73;20293;-81
2021/06/02 06:55:32;;;;;;;;;;;36.60;54.60;;;;;;1901653;74;20199;-81
2021/06/02 06:58:06;;;;;;;;;;;36.60;51.80;;;;;;1917303;73;20155;-79
2021/06/02 07:00:36;;;;;;;;;;;36.60;53.10;;;;;;1917397;74;20281;-79
2021/06/02 07:03:07;;;;;;;;;;;36.70;52.20;;;;;;1890159;74;20599;-80
2021/06/02 07:05:38;;;;;;;;;;;36.70;53.10;;;;;;1884247;75;20220;-79
2021/06/02 07:08:09;;;;;;;;;;;36.70;52.10;;;;;;1886889;74;20178;-79
2021/06/02 07:10:39;;;;;;;;;;;36.80;52.60;;;;;;1887110;75;20284;-81
2021/06/02 07:13:10;;;;;;;;;;;36.80;51.90;;;;;;1877496;76;20180;-79
2021/06/02 07:15:40;;;;;;;;;;;36.90;51.60;;;;;;1883940;75;20228;-82
2021/06/02 07:18:11;;;;;;;;;;;36.90;50.60;;;;;;1863858;75;20251;-77
2021/06/02 07:20:42;;;;;;;;;;;37.00;50.30;;;;;;1891829;75;20285;-77
2021/06/02 07:23:13;;;;;;;;;;;36.90;51.10;;;;;;1887614;74;20192;-78
2021/06/02 07:25:43;;;;;;;;;;;36.90;51.50;;;;;;1857460;76;20255;-78
2021/06/02 07:28:13;;;;;;;;;;;37.00;49.40;;;;;;1868356;75;20242;-78
2021/06/02 07:30:43;;;;;;;;;;;36.90;49.90;;;;;;1873485;75;20802;-78
2021/06/02 07:33:13;;;;;;;;;;;36.90;50.20;;;;;;1889540;74;20157;-77
2021/06/02 07:35:43;;;;;;;;;;;36.90;50.10;;;;;;1853339;76;20206;-77
2021/06/02 07:38:13;;;;;;;;;;;36.90;51.40;;;;;;1852717;76;20199;-77
2021/06/02 07:40:43;;;;;;;;;;;36.80;50.70;;;;;;1861010;76;20266;-77
2021/06/02 07:43:13;;;;;;;;;;;36.90;53.40;;;;;;1884148;75;20118;-79
2021/06/02 07:45:43;;;;;;;;;;;36.80;50.90;;;;;;1890599;74;20381;-78
2021/06/02 07:48:13;;;;;;;;;;;36.80;49.20;;;;;;1859045;76;20135;-78
2021/06/02 07:50:43;;;;;;;;;;;36.80;48.50;;;;;;1875423;75;20128;-76
2021/06/02 07:53:13;;;;;;;;;;;36.80;49.10;;;;;;1857346;75;20266;-78
2021/06/02 07:55:43;;;;;;;;;;;36.80;49.60;;;;;;1886699;75;20130;-78
2021/06/02 07:58:13;;;;;;;;;;;36.80;50.30;;;;;;1868714;75;20155;-80
2021/06/02 08:00:43;;;;;;;;;;;36.80;49.30;;;;;;1884050;74;20242;-81
2021/06/02 08:03:13;;;;;;;;;;;36.90;49.10;;;;;;1873368;75;20599;-77
2021/06/02 08:05:43;;;;;;;;;;;36.90;49.20;;;;;;1863522;75;20534;-78
2021/06/02 08:08:13;;;;;;;;;;;36.90;48.70;;;;;;1877349;75;20193;-78
2021/06/02 08:10:42;;;;;;;;;;;37.00;49.00;;;;;;1871402;75;20383;-77
2021/06/02 08:13:12;;;;;;;;;;;37.00;49.90;;;;;;1882262;76;20207;-78
2021/06/02 08:15:42;;;;;;;;;;;37.10;49.20;;;;;;1865214;75;20143;-79
2021/06/02 08:18:12;;;;;;;;;;;37.00;49.00;;;;;;1896397;75;20144;-81
2021/06/02 08:20:42;;;;;;;;;;;36.90;49.60;;;;;;1866129;76;20134;-77
2021/06/02 08:23:12;;;;;;;;;;;36.90;50.40;;;;;;1863167;76;20522;-77
2021/06/02 08:25:41;;;;;;;;;;;36.90;50.70;;;;;;1886047;75;20305;-76
2021/06/02 08:28:11;;;;;;;;;;;36.90;50.40;;;;;;1889664;75;20200;-78
2021/06/02 08:30:41;;;;;;;;;;;36.90;50.30;;;;;;1850942;76;20490;-77
2021/06/02 08:33:11;;;;;;;;;;;36.90;50.70;;;;;;1875864;75;20165;-80
2021/06/02 08:35:41;;;;;;;;;;;36.90;50.90;;;;;;1875100;75;20576;-80
2021/06/02 08:38:12;;;;;;;;;;;37.00;52.70;;;;;;1851934;75;20212;-78
2021/06/02 08:40:42;;;;;;;;;;;36.90;52.80;;;;;;1842020;76;20127;-78
2021/06/02 08:43:12;;;;;;;;;;;36.90;53.00;;;;;;1878983;75;20314;-79
2021/06/02 08:45:42;;;;;;;;;;;36.90;52.50;;;;;;1873522;75;20223;-78
2021/06/02 08:48:12;;;;;;;;;;;36.80;53.00;;;;;;1874253;75;20265;-77
2021/06/02 08:50:42;;;;;;;;;;;36.70;53.10;;;;;;1875063;75;20229;-79
2021/06/02 08:53:14;;;;;;;;;;;36.70;53.20;;;;;;1874729;75;20208;-77
2021/06/02 08:55:45;;;;;;;;;;;36.60;53.30;;;;;;1863128;75;20269;-78
2021/06/02 08:58:16;;;;;;;;;;;36.60;53.70;;;;;;1852795;75;20188;-79
2021/06/02 09:00:46;;;;;;;;;;;36.50;54.10;;;;;;1854175;76;20254;-77
2021/06/02 09:03:17;;;;;;;;;;;36.40;54.10;;;;;;1850994;76;20170;-77
2021/06/02 09:05:46;;;;;;;;;;;36.30;54.30;;;;;;1845922;76;20231;-80
2021/06/02 09:08:17;;;;;;;;;;;36.30;54.60;;;;;;1874944;75;20239;-76
2021/06/02 09:10:47;;;;;;;;;;;36.30;54.70;;;;;;1883517;75;20216;-75
2021/06/02 09:13:19;;;;;;;;;;;36.30;55.10;;;;;;1853346;76;20335;-78
2021/06/02 09:15:50;;;;;;;;;;;36.30;55.50;;;;;;1858840;75;20188;-79
2021/06/02 09:18:21;;;;;;;;;;;36.30;55.30;;;;;;1881799;75;20183;-79
2021/06/02 09:20:51;;;;;;;;;;;36.30;55.00;;;;;;1847907;76;20133;-78
2021/06/02 09:23:22;;;;;;;;;;;36.30;54.90;;;;;;1866512;76;20634;-79
2021/06/02 09:25:54;;;;;;;;;;;36.30;55.00;;;;;;1877876;75;20225;-80
2021/06/02 09:28:23;;;;;;;;;;;36.30;54.80;;;;;;1880535;75;20202;-80
2021/06/02 09:30:53;;;;;;;;;;;36.20;54.60;;;;;;1886279;75;20226;-79
2021/06/02 09:33:23;;;;;;;;;;;36.30;55.10;;;;;;1894279;74;20186;-79
2021/06/02 09:35:54;;;;;;;;;;;36.20;54.60;;;;;;1900516;74;20201;-79
2021/06/02 09:38:25;;;;;;;;;;;36.20;54.60;;;;;;1889981;74;20510;-79
2021/06/02 09:40:55;;;;;;;;;;;36.10;54.50;;;;;;1883791;75;20183;-78
2021/06/02 09:43:26;;;;;;;;;;;36.10;54.00;;;;;;1889647;76;20197;-78
2021/06/02 09:45:57;;;;;;;;;;;36.10;54.30;;;;;;1890538;75;20264;-79
2021/06/02 09:48:27;;;;;;;;;;;36.10;54.60;;;;;;1873435;75;20184;-78
2021/06/02 09:50:57;;;;;;;;;;;36.10;55.00;;;;;;1894651;74;20253;-79
2021/06/02 09:53:28;;;;;;;;;;;36.10;55.40;;;;;;1880804;76;20457;-78
2021/06/02 09:55:58;;;;;;;;;;;36.10;55.80;;;;;;1889098;76;20553;-77
2021/06/02 09:58:27;;;;;;;;;;;36.00;56.00;;;;;;1892352;76;20190;-78
2021/06/02 10:00:58;;;;;;;;;;;36.00;56.10;;;;;;1886721;76;20423;-78
2021/06/02 10:03:33;;;;;;;;;;;35.90;56.20;;;;;;1886779;75;20198;-77
2021/06/02 10:06:00;;;;;;;;;;;35.90;56.20;;;;;;1892205;75;20148;-77
2021/06/02 10:08:31;;;;;;;;;;;35.90;56.40;;;;;;1889035;74;20168;-77
2021/06/02 10:11:02;;;;;;;;;;;35.90;56.50;;;;;;1890573;75;20237;-79
2021/06/02 10:13:32;;;;;;;;;;;35.80;56.10;;;;;;1899206;74;20254;-78
2021/06/02 10:16:02;;;;;;;;;;;35.90;56.30;;;;;;1901814;74;20238;-76
2021/06/02 10:18:33;;;;;;;;;;;35.80;56.00;;;;;;1899544;74;20256;-81
2021/06/02 10:21:04;;;;;;;;;;;35.80;55.70;;;;;;1897376;74;20148;-78
2021/06/02 10:23:36;;;;;;;;;;;35.80;56.30;;;;;;1890796;75;20183;-79
2021/06/02 10:26:07;;;;;;;;;;;35.80;56.30;;;;;;1901365;74;20270;-78
2021/06/02 10:28:37;;;;;;;;;;;35.70;56.40;;;;;;1889386;74;20227;-78
2021/06/02 10:31:08;;;;;;;;;;;35.70;56.90;;;;;;1889426;74;20211;-79
2021/06/02 10:33:38;;;;;;;;;;;35.70;56.30;;;;;;1911109;74;20443;-79
2021/06/02 10:36:10;;;;;;;;;;;35.70;56.60;;;;;;1892743;74;20211;-79
2021/06/02 10:38:40;;;;;;;;;;;35.60;56.80;;;;;;1901130;74;20560;-78
2021/06/02 10:41:12;;;;;;;;;;;35.60;56.90;;;;;;1896142;74;20180;-78
2021/06/02 10:43:43;;;;;;;;;;;35.60;57.40;;;;;;1894091;75;20223;-79
2021/06/02 10:46:14;;;;;;;;;;;35.60;57.00;;;;;;1904655;74;20222;-78
2021/06/02 10:48:45;;;;;;;;;;;35.60;57.70;;;;;;1891049;74;20172;-78
2021/06/02 10:51:16;;;;;;;;;;;35.70;58.50;;;;;;1892762;74;20128;-78
2021/06/02 10:53:47;;;;;;;;;;;35.60;59.30;;;;;;1891217;74;20222;-79
2021/06/02 10:56:18;;;;;;;;;;;35.60;59.70;;;;;;1874178;76;20263;-78
2021/06/02 10:58:48;;;;;;;;;;;35.60;59.90;;;;;;1894513;74;20215;-78
2021/06/02 11:01:20;;;;;;;;;;;35.50;60.60;;;;;;1871085;75;20264;-74
2021/06/02 11:03:51;;;;;;;;;;;35.40;60.60;;;;;;1873031;75;20554;-75
2021/06/02 11:06:22;;;;;;;;;;;35.40;61.00;;;;;;1848732;76;20178;-75
2021/06/02 11:08:54;;;;;;;;;;;35.40;60.00;;;;;;1856230;76;20137;-74
2021/06/02 11:11:25;;;;;;;;;;;35.40;60.40;;;;;;1899365;74;20308;-74
2021/06/02 11:13:56;;;;;;;;;;;35.30;60.30;;;;;;1889541;74;20170;-75
2021/06/02 11:16:27;;;;;;;;;;;35.20;60.40;;;;;;1853994;76;20197;-74
2021/06/02 11:18:58;;;;;;;;;;;35.10;61.10;;;;;;1914239;74;20186;-76
2021/06/02 11:21:28;;;;;;;;;;;35.10;61.10;;;;;;1888155;74;20225;-74
2021/06/02 11:23:58;;;;;;;;;;;35.10;60.60;;;;;;1899548;74;20449;-75
2021/06/02 11:26:29;;;;;;;;;;;35.00;61.10;;;;;;1886055;74;20601;-74
2021/06/02 11:28:58;;;;;;;;;;;34.90;61.50;;;;;;1894849;74;20216;-75
2021/06/02 11:31:29;;;;;;;;;;;34.90;62.10;;;;;;1893972;74;20186;-75
2021/06/02 11:34:00;;;;;;;;;;;34.80;61.20;;;;;;1897236;76;20555;-75
2021/06/02 11:36:30;;;;;;;;;;;34.80;61.60;;;;;;1888790;74;20658;-75
2021/06/02 11:39:01;;;;;;;;;;;34.70;61.70;;;;;;1899142;74;20209;-76
2021/06/02 11:41:31;;;;;;;;;;;34.70;61.40;;;;;;1886326;74;20225;-75
2021/06/02 11:44:01;;;;;;;;;;;34.60;61.90;;;;;;1898296;74;20174;-76
2021/06/02 11:46:33;;;;;;;;;;;34.60;62.00;;;;;;1896862;74;20460;-76
2021/06/02 11:49:03;;;;;;;;;;;34.60;62.30;;;;;;1893873;74;20584;-76
2021/06/02 11:51:33;;;;;;;;;;;34.60;62.30;;;;;;1906616;74;20237;-75
2021/06/02 11:54:02;;;;;;;;;;;34.50;62.80;;;;;;1893693;74;20277;-76
2021/06/02 11:56:32;;;;;;;;;;;34.50;63.00;;;;;;1893697;74;20194;-75
2021/06/02 11:59:03;;;;;;;;;;;34.40;63.10;;;;;;1902320;74;20130;-76
2021/06/02 12:01:33;;;;;;;;;;;34.40;63.20;;;;;;1901405;74;20286;-76
2021/06/02 12:04:03;;;;;;;;;;;34.40;63.70;;;;;;1902241;74;20243;-77
2021/06/02 12:06:35;;;;;;;;;;;34.30;63.80;;;;;;1899166;74;20242;-76
2021/06/02 12:09:06;;;;;;;;;;;34.30;63.80;;;;;;1897593;74;20421;-76
2021/06/02 12:11:35;;;;;;;;;;;34.30;64.00;;;;;;1858705;76;20461;-76
2021/06/02 12:14:05;;;;;;;;;;;34.30;64.20;;;;;;1886860;75;20259;-76
2021/06/02 12:16:35;;;;;;;;;;;34.20;64.30;;;;;;1856853;76;20178;-76
2021/06/02 12:19:05;;;;;;;;;;;34.20;64.20;;;;;;1856905;76;20463;-76
2021/06/02 12:21:34;;;;;;;;;;;34.20;64.30;;;;;;1881959;75;20518;-76
2021/06/02 12:24:06;;;;;;;;;;;34.20;64.50;;;;;;1888910;74;20137;-76
2021/06/02 12:26:47;;;;;;;;;;;34.10;64.60;;;;;;1895187;74;20153;-77
2021/06/02 12:29:11;;;;;;;;;;;34.10;64.50;;;;;;1900483;74;20470;-77
2021/06/02 12:31:42;;;;;;;;;;;34.00;64.80;;;;;;1893868;74;20203;-76
2021/06/02 12:34:13;;;;;;;;;;;34.00;65.40;;;;;;1891499;74;20482;-76
2021/06/02 12:36:45;;;;;;;;;;;33.90;65.50;;;;;;1868070;76;20140;-76
2021/06/02 12:39:15;;;;;;;;;;;33.90;65.60;;;;;;1896609;74;20171;-76
2021/06/02 12:41:46;;;;;;;;;;;33.90;65.70;;;;;;1891951;74;20199;-76
2021/06/02 12:44:16;;;;;;;;;;;33.90;66.20;;;;;;1888557;74;20183;-75
2021/06/02 12:46:47;;;;;;;;;;;33.90;66.30;;;;;;1869055;76;20441;-77
2021/06/02 12:49:17;;;;;;;;;;;33.90;66.30;;;;;;1896492;74;20180;-77
2021/06/02 12:51:49;;;;;;;;;;;33.80;66.40;;;;;;1861620;76;20257;-76
2021/06/02 12:54:18;;;;;;;;;;;33.80;66.40;;;;;;1895679;75;20153;-76
2021/06/02 12:56:48;;;;;;;;;;;33.80;66.00;;;;;;1893157;74;20212;-76
2021/06/02 12:59:18;;;;;;;;;;;33.80;66.40;;;;;;1871145;76;20172;-76
2021/06/02 13:01:48;;;;;;;;;;;33.80;66.00;;;;;;1874330;75;20156;-76
2021/06/02 13:04:18;;;;;;;;;;;33.80;66.10;;;;;;1881396;75;20638;-75
2021/06/02 13:06:49;;;;;;;;;;;33.80;65.40;;;;;;1871998;76;20203;-75
2021/06/02 13:09:20;;;;;;;;;;;33.80;65.40;;;;;;1877401;75;20575;-77
2021/06/02 13:11:51;;;;;;;;;;;33.70;65.60;;;;;;1874258;75;20512;-76
2021/06/02 13:14:22;;;;;;;;;;;33.70;65.70;;;;;;1873669;75;20546;-76
2021/06/02 13:16:53;;;;;;;;;;;33.60;65.80;;;;;;1874837;76;20184;-76
2021/06/02 13:19:24;;;;;;;;;;;33.70;66.00;;;;;;1873153;76;20448;-75
2021/06/02 13:21:54;;;;;;;;;;;33.60;66.00;;;;;;1888469;75;20514;-76
2021/06/02 13:24:25;;;;;;;;;;;33.60;66.10;;;;;;1866112;76;20150;-76
2021/06/02 13:26:58;;;;;;;;;;;33.60;66.30;;;;;;1887766;74;20200;-75
2021/06/02 13:29:27;;;;;;;;;;;33.60;66.30;;;;;;1849953;76;20164;-76
2021/06/02 13:31:58;;;;;;;;;;;33.60;66.20;;;;;;1884116;74;20422;-77
2021/06/02 13:34:29;;;;;;;;;;;33.60;66.40;;;;;;1901201;74;20154;-89
2021/06/02 13:36:59;;;;;;;;;;;33.60;66.80;;;;;;1895181;74;20166;-89
2021/06/02 13:39:29;;;;;;;;;;;33.60;66.90;;;;;;1897493;74;20531;-90
2021/06/02 13:42:00;;;;;;;;;;;33.60;66.90;;;;;;1901006;74;20239;-88
2021/06/02 13:44:29;;;;;;;;;;;33.60;66.80;;;;;;1891836;74;20186;-91
2021/06/02 13:46:59;;;;;;;;;;;33.60;66.90;;;;;;1893610;74;20265;-90
2021/06/02 13:49:30;;;;;;;;;;;33.60;68.20;;;;;;1896011;74;20229;-90
2021/06/02 13:51:59;;;;;;;;;;;33.60;67.10;;;;;;1903408;74;20444;-89
2021/06/02 13:54:30;;;;;;;;;;;33.60;67.20;;;;;;1902155;74;20181;-90
2021/06/02 13:57:03;;;;;;;;;;;33.60;67.20;;;;;;1895997;74;20202;-92
2021/06/02 13:59:34;;;;;;;;;;;33.50;67.40;;;;;;1854512;76;20243;-91
2021/06/02 14:02:05;;;;;;;;;;;33.50;67.70;;;;;;1901226;74;20210;-91
2021/06/02 14:04:39;;;;;;;;;;;33.40;67.60;;;;;;1900371;74;20202;-90
2021/06/02 14:07:07;;;;;;;;;;;33.30;68.10;;;;;;1872788;74;20312;-90
2021/06/02 14:09:38;;;;;;;;;;;33.30;68.10;;;;;;1888812;75;20239;-89
2021/06/02 14:12:08;;;;;;;;;;;33.30;68.10;;;;;;1892477;74;20186;-92
2021/06/02 14:14:38;;;;;;;;;;;33.30;68.10;;;;;;1907863;74;20229;-93
2021/06/02 14:17:10;;;;;;;;;;;33.30;68.10;;;;;;1899829;74;20264;-91
2021/06/02 14:19:40;;;;;;;;;;;33.30;68.00;;;;;;1893574;74;20251;-90
2021/06/02 14:22:12;;;;;;;;;;;33.30;68.30;;;;;;1899065;74;20152;-89
2021/06/02 14:24:42;;;;;;;;;;;33.20;68.10;;;;;;1891011;74;20192;-90
2021/06/02 14:27:12;;;;;;;;;;;33.30;68.20;;;;;;1902972;74;20270;-89
2021/06/02 14:29:44;;;;;;;;;;;33.30;68.20;;;;;;1875916;75;20599;-90
2021/06/02 14:32:14;;;;;;;;;;;33.30;68.30;;;;;;1871823;75;20460;-92
2021/06/02 14:34:43;;;;;;;;;;;33.30;68.20;;;;;;1870623;76;20502;-92
2021/06/02 14:37:26;;;;;;;;;;;33.30;68.30;;;;;;1861228;76;20196;-92
2021/06/02 14:39:56;;;;;;;;;;;33.30;68.60;;;;;;1826365;77;20163;-93